createdAt,value
2019-02-02T00:00:43.378Z,2.20
2019-02-02T00:03:46.833Z,2.20
2019-02-02T00:06:50.273Z,2.20
2019-02-02T00:09:53.700Z,2.30
2019-02-02T00:12:57.140Z,2.30
2019-02-02T00:16:00.580Z,2.30
2019-02-02T00:19:04.532Z,2.30
2019-02-02T00:22:07.969Z,2.40
2019-02-02T00:25:11.533Z,2.40
2019-02-02T00:28:14.995Z,2.50
2019-02-02T00:31:18.428Z,2.50
2019-02-02T00:34:21.889Z,2.40
2019-02-02T00:37:25.348Z,2.40
2019-02-02T00:40:28.777Z,2.40
2019-02-02T00:43:32.213Z,2.40
2019-02-02T00:46:35.629Z,2.30
2019-02-02T00:49:39.074Z,2.40
2019-02-02T00:52:42.561Z,2.40
2019-02-02T00:55:46.003Z,2.40
2019-02-02T00:58:49.436Z,2.40
2019-02-02T01:01:52.888Z,2.50
2019-02-02T01:04:56.343Z,2.50
2019-02-02T01:07:59.808Z,2.50
2019-02-02T01:11:05.069Z,2.50
2019-02-02T01:14:08.629Z,2.50
2019-02-02T01:17:12.076Z,2.50
2019-02-02T01:20:15.948Z,2.50
2019-02-02T01:23:19.397Z,2.60
2019-02-02T01:26:22.835Z,2.60
2019-02-02T01:29:26.265Z,2.70
2019-02-02T01:32:29.689Z,2.70
2019-02-02T01:35:33.133Z,2.70
2019-02-02T01:38:36.572Z,2.70
2019-02-02T01:41:39.997Z,2.70
2019-02-02T01:44:43.441Z,2.70
2019-02-02T01:47:46.858Z,2.70
2019-02-02T01:50:50.322Z,2.70
2019-02-02T01:53:53.732Z,2.60
2019-02-02T01:56:57.168Z,2.70
2019-02-02T02:00:00.606Z,2.70
2019-02-02T02:03:04.130Z,2.70
2019-02-02T02:06:07.600Z,2.70
2019-02-02T02:09:11.309Z,2.60
2019-02-02T02:12:14.724Z,2.60
2019-02-02T02:15:19.500Z,2.60
2019-02-02T02:18:22.944Z,2.60
2019-02-02T02:21:26.375Z,2.60
2019-02-02T02:24:29.799Z,2.60
2019-02-02T02:27:33.216Z,2.50
2019-02-02T02:30:36.652Z,2.50
2019-02-02T02:33:40.077Z,2.40
2019-02-02T02:36:43.507Z,2.40
2019-02-02T02:39:46.949Z,2.40
2019-02-02T02:42:50.905Z,2.40
2019-02-02T02:45:54.344Z,2.30
2019-02-02T02:48:57.769Z,2.30
2019-02-02T02:52:01.205Z,2.30
2019-02-02T02:55:07.780Z,2.30
2019-02-02T02:58:11.239Z,2.30
2019-02-02T03:01:14.667Z,2.30
2019-02-02T03:04:18.109Z,2.30
2019-02-02T03:07:21.552Z,2.30
2019-02-02T03:10:27.729Z,2.20
2019-02-02T03:13:31.168Z,2.20
2019-02-02T03:16:34.590Z,2.10
2019-02-02T03:19:38.136Z,2.10
2019-02-02T03:22:41.606Z,2.10
2019-02-02T03:25:45.044Z,2.10
2019-02-02T03:28:53.606Z,2.10
2019-02-02T03:31:53.613Z,2.10
2019-02-02T03:34:57.211Z,2.10
2019-02-02T03:38:00.712Z,2.10
2019-02-02T03:41:04.161Z,2.10
2019-02-02T03:44:07.569Z,2.10
2019-02-02T03:47:11.005Z,2.00
2019-02-02T03:50:14.712Z,2.00
2019-02-02T03:53:18.153Z,2.00
2019-02-02T03:56:21.568Z,2.00
2019-02-02T03:59:25.009Z,2.00
2019-02-02T04:02:28.441Z,2.00
2019-02-02T04:05:32.148Z,2.00
2019-02-02T04:08:35.580Z,2.00
2019-02-02T04:11:38.994Z,2.00
2019-02-02T04:14:42.435Z,2.00
2019-02-02T04:17:45.868Z,2.00
2019-02-02T04:20:49.316Z,2.10
2019-02-02T04:23:52.738Z,2.00
2019-02-02T04:26:56.173Z,2.10
2019-02-02T04:29:59.592Z,2.10
2019-02-02T04:33:03.036Z,2.10
2019-02-02T04:36:06.457Z,2.10
2019-02-02T04:39:09.897Z,2.10
2019-02-02T04:42:13.313Z,2.10
2019-02-02T04:45:17.792Z,2.10
2019-02-02T04:48:21.210Z,2.00
2019-02-02T04:51:24.645Z,2.00
2019-02-02T04:54:28.069Z,1.90
2019-02-02T04:57:31.508Z,1.90
2019-02-02T05:00:34.912Z,1.90
2019-02-02T05:03:38.354Z,1.80
2019-02-02T05:06:41.792Z,1.80
2019-02-02T05:09:45.228Z,1.70
2019-02-02T05:12:49.011Z,1.70
2019-02-02T05:15:52.560Z,1.70
2019-02-02T05:18:56.041Z,1.80
2019-02-02T05:21:59.492Z,1.80
2019-02-02T05:25:02.927Z,1.90
2019-02-02T05:28:06.374Z,1.90
2019-02-02T05:31:09.792Z,1.90
2019-02-02T05:34:13.230Z,1.90
2019-02-02T05:37:16.643Z,2.00
2019-02-02T05:40:22.289Z,1.90
2019-02-02T05:43:25.733Z,1.90
2019-02-02T05:46:29.168Z,1.90
2019-02-02T05:49:32.581Z,1.90
2019-02-02T05:52:36.033Z,1.90
2019-02-02T05:55:39.453Z,1.90
2019-02-02T05:58:42.897Z,1.90
2019-02-02T06:01:46.332Z,1.90
2019-02-02T06:04:49.765Z,1.90
2019-02-02T06:07:53.193Z,1.90
2019-02-02T06:10:56.644Z,1.90
2019-02-02T06:14:00.077Z,1.90
2019-02-02T06:17:03.513Z,2.00
2019-02-02T06:20:10.156Z,1.90
2019-02-02T06:23:13.604Z,1.90
2019-02-02T06:26:17.033Z,2.00
2019-02-02T06:29:20.474Z,2.00
2019-02-02T06:32:23.894Z,2.00
2019-02-02T06:35:27.336Z,1.90
2019-02-02T06:38:30.748Z,1.90
2019-02-02T06:41:34.183Z,1.90
2019-02-02T06:44:37.635Z,1.90
2019-02-02T06:47:41.059Z,1.90
2019-02-02T06:50:44.499Z,1.90
2019-02-02T06:53:47.913Z,1.90
2019-02-02T06:56:51.359Z,1.90
2019-02-02T06:59:54.802Z,1.90
2019-02-02T07:02:58.257Z,2.00
2019-02-02T07:06:01.697Z,1.90
2019-02-02T23:06:55.986Z,1.10
2019-02-02T23:10:05.233Z,1.10
2019-02-02T23:13:26.855Z,1.10
2019-02-02T23:16:30.283Z,1.00
2019-02-02T23:19:33.749Z,1.00
2019-02-02T23:22:37.173Z,1.00
2019-02-02T23:25:40.601Z,1.10
2019-02-02T23:28:44.028Z,1.10
2019-02-02T23:31:47.468Z,1.10
2019-02-02T23:34:50.921Z,1.10
2019-02-02T23:37:54.507Z,1.10
2019-02-02T23:40:57.960Z,1.10
2019-02-02T23:44:01.389Z,1.20
2019-02-02T23:47:04.871Z,1.10
2019-02-02T23:50:10.143Z,1.00
2019-02-02T23:53:13.643Z,1.00
2019-02-02T23:56:17.061Z,1.00
2019-02-02T23:59:20.789Z,1.00
